sensor_id;sensor_type;location;lat;lon;timestamp;pressure;altitude;pressure_sealevel;temperature
65738;BMP280;52478;51.844;6.582;2024-02-26T00:02:10;99671.81;;;19.30
65738;BMP280;52478;51.844;6.582;2024-02-26T00:04:37;99679.81;;;19.34
65738;BMP280;52478;51.844;6.582;2024-02-26T00:07:03;99679.47;;;19.37
65738;BMP280;52478;51.844;6.582;2024-02-26T00:09:30;99677.63;;;19.40
65738;BMP280;52478;51.844;6.582;2024-02-26T00:11:56;99671.75;;;19.43
65738;BMP280;52478;51.844;6.582;2024-02-26T00:14:23;99674.00;;;19.45
65738;BMP280;52478;51.844;6.582;2024-02-26T00:16:49;99674.22;;;19.47
65738;BMP280;52478;51.844;6.582;2024-02-26T00:19:17;99665.91;;;19.47
65738;BMP280;52478;51.844;6.582;2024-02-26T00:21:43;99662.56;;;19.48
65738;BMP280;52478;51.844;6.582;2024-02-26T00:24:10;99656.28;;;19.48
65738;BMP280;52478;51.844;6.582;2024-02-26T00:26:36;99657.03;;;19.48
65738;BMP280;52478;51.844;6.582;2024-02-26T00:29:03;99652.97;;;19.49
65738;BMP280;52478;51.844;6.582;2024-02-26T00:31:29;99660.00;;;19.50
65738;BMP280;52478;51.844;6.582;2024-02-26T00:33:56;99651.47;;;19.48
65738;BMP280;52478;51.844;6.582;2024-02-26T00:36:23;99652.97;;;19.49
65738;BMP280;52478;51.844;6.582;2024-02-26T00:38:50;99658.53;;;19.49
65738;BMP280;52478;51.844;6.582;2024-02-26T00:41:16;99658.53;;;19.49
65738;BMP280;52478;51.844;6.582;2024-02-26T00:43:43;99662.78;;;19.50
65738;BMP280;52478;51.844;6.582;2024-02-26T00:46:09;99666.31;;;19.51
65738;BMP280;52478;51.844;6.582;2024-02-26T00:48:36;99658.53;;;19.49
65738;BMP280;52478;51.844;6.582;2024-02-26T00:51:03;99658.53;;;19.49
65738;BMP280;52478;51.844;6.582;2024-02-26T00:53:31;99654.25;;;19.48
65738;BMP280;52478;51.844;6.582;2024-02-26T00:55:58;99658.31;;;19.47
65738;BMP280;52478;51.844;6.582;2024-02-26T00:58:24;99659.81;;;19.48
65738;BMP280;52478;51.844;6.582;2024-02-26T01:00:51;99655.53;;;19.47
65738;BMP280;52478;51.844;6.582;2024-02-26T01:03:18;99655.53;;;19.47
65738;BMP280;52478;51.844;6.582;2024-02-26T01:05:45;99656.28;;;19.48
65738;BMP280;52478;51.844;6.582;2024-02-26T01:08:11;99659.59;;;19.46
65738;BMP280;52478;51.844;6.582;2024-02-26T01:10:39;99665.16;;;19.46
65738;BMP280;52478;51.844;6.582;2024-02-26T01:13:06;99658.09;;;19.45
65738;BMP280;52478;51.844;6.582;2024-02-26T01:15:32;99658.09;;;19.45
65738;BMP280;52478;51.844;6.582;2024-02-26T01:17:59;99653.84;;;19.44
65738;BMP280;52478;51.844;6.582;2024-02-26T01:20:25;99651.78;;;19.45
65738;BMP280;52478;51.844;6.582;2024-02-26T01:22:52;99652.13;;;19.41
65738;BMP280;52478;51.844;6.582;2024-02-26T01:25:18;99666.22;;;19.43
65738;BMP280;52478;51.844;6.582;2024-02-26T01:27:46;99671.75;;;19.43
65738;BMP280;52478;51.844;6.582;2024-02-26T01:30:13;99664.72;;;19.42
65738;BMP280;52478;51.844;6.582;2024-02-26T01:32:41;99675.81;;;19.42
65738;BMP280;52478;51.844;6.582;2024-02-26T01:35:08;99671.03;;;19.43
65738;BMP280;52478;51.844;6.582;2024-02-26T01:37:37;99663.22;;;19.41
65738;BMP280;52478;51.844;6.582;2024-02-26T01:40:05;99663.22;;;19.41
65738;BMP280;52478;51.844;6.582;2024-02-26T01:42:32;99670.78;;;19.41
65738;BMP280;52478;51.844;6.582;2024-02-26T01:45:00;99677.09;;;19.41
65738;BMP280;52478;51.844;6.582;2024-02-26T01:47:27;99688.03;;;19.39
65738;BMP280;52478;51.844;6.582;2024-02-26T01:49:53;99685.94;;;19.40
65738;BMP280;52478;51.844;6.582;2024-02-26T01:52:20;99688.03;;;19.39
65738;BMP280;52478;51.844;6.582;2024-02-26T01:54:47;99680.94;;;19.38
65738;BMP280;52478;51.844;6.582;2024-02-26T01:57:14;99693.56;;;19.39
65738;BMP280;52478;51.844;6.582;2024-02-26T01:59:41;99688.03;;;19.39
65738;BMP280;52478;51.844;6.582;2024-02-26T02:02:10;99689.28;;;19.38
65738;BMP280;52478;51.844;6.582;2024-02-26T02:04:36;99700.38;;;19.38
65738;BMP280;52478;51.844;6.582;2024-02-26T02:07:04;99696.88;;;19.38
65738;BMP280;52478;51.844;6.582;2024-02-26T02:09:30;99700.38;;;19.38
65738;BMP280;52478;51.844;6.582;2024-02-26T02:11:58;99710.22;;;19.39
65738;BMP280;52478;51.844;6.582;2024-02-26T02:14:24;99697.59;;;19.38
65738;BMP280;52478;51.844;6.582;2024-02-26T02:16:51;99700.16;;;19.36
65738;BMP280;52478;51.844;6.582;2024-02-26T02:19:19;99700.91;;;19.37
65738;BMP280;52478;51.844;6.582;2024-02-26T02:21:47;99700.91;;;19.37
65738;BMP280;52478;51.844;6.582;2024-02-26T02:24:13;99705.72;;;19.36
65738;BMP280;52478;51.844;6.582;2024-02-26T02:26:40;99699.41;;;19.36
65738;BMP280;52478;51.844;6.582;2024-02-26T02:29:06;99702.72;;;19.34
65738;BMP280;52478;51.844;6.582;2024-02-26T02:31:34;99701.44;;;19.35
65738;BMP280;52478;51.844;6.582;2024-02-26T02:34:01;99702.00;;;19.34
65738;BMP280;52478;51.844;6.582;2024-02-26T02:36:27;99708.28;;;19.34
65738;BMP280;52478;51.844;6.582;2024-02-26T02:38:55;99713.81;;;19.34
65738;BMP280;52478;51.844;6.582;2024-02-26T02:41:21;99711.06;;;19.34
65738;BMP280;52478;51.844;6.582;2024-02-26T02:43:48;99713.81;;;19.34
65738;BMP280;52478;51.844;6.582;2024-02-26T02:46:14;99715.88;;;19.34
65738;BMP280;52478;51.844;6.582;2024-02-26T02:48:41;99712.13;;;19.31
65738;BMP280;52478;51.844;6.582;2024-02-26T02:51:08;99712.34;;;19.33
65738;BMP280;52478;51.844;6.582;2024-02-26T02:53:35;99707.53;;;19.34
65738;BMP280;52478;51.844;6.582;2024-02-26T02:56:03;99703.28;;;19.33
65738;BMP280;52478;51.844;6.582;2024-02-26T02:58:30;99708.06;;;19.32
65738;BMP280;52478;51.844;6.582;2024-02-26T03:00:57;99701.22;;;19.33
65738;BMP280;52478;51.844;6.582;2024-02-26T03:03:25;99711.59;;;19.33
65738;BMP280;52478;51.844;6.582;2024-02-26T03:05:53;99699.75;;;19.32
65738;BMP280;52478;51.844;6.582;2024-02-26T03:08:20;99710.84;;;19.32
65738;BMP280;52478;51.844;6.582;2024-02-26T03:10:46;99705.28;;;19.32
65738;BMP280;52478;51.844;6.582;2024-02-26T03:13:14;99698.25;;;19.31
65738;BMP280;52478;51.844;6.582;2024-02-26T03:15:41;99691.94;;;19.31
65738;BMP280;52478;51.844;6.582;2024-02-26T03:18:07;99703.81;;;19.31
65738;BMP280;52478;51.844;6.582;2024-02-26T03:20:33;99706.56;;;19.31
65738;BMP280;52478;51.844;6.582;2024-02-26T03:23:00;99707.88;;;19.30
65738;BMP280;52478;51.844;6.582;2024-02-26T03:25:26;99705.81;;;19.31
65738;BMP280;52478;51.844;6.582;2024-02-26T03:27:53;99709.34;;;19.31
65738;BMP280;52478;51.844;6.582;2024-02-26T03:30:21;99703.59;;;19.29
65738;BMP280;52478;51.844;6.582;2024-02-26T03:32:47;99712.66;;;19.30
65738;BMP280;52478;51.844;6.582;2024-02-26T03:35:14;99712.66;;;19.30
65738;BMP280;52478;51.844;6.582;2024-02-26T03:37:40;99724.53;;;19.30
65738;BMP280;52478;51.844;6.582;2024-02-26T03:40:07;99723.00;;;19.29
65738;BMP280;52478;51.844;6.582;2024-02-26T03:42:34;99717.47;;;19.29
65738;BMP280;52478;51.844;6.582;2024-02-26T03:45:00;99723.00;;;19.29
65738;BMP280;52478;51.844;6.582;2024-02-26T03:47:29;99725.78;;;19.29
65738;BMP280;52478;51.844;6.582;2024-02-26T03:49:55;99727.81;;;19.29
65738;BMP280;52478;51.844;6.582;2024-02-26T03:52:21;99726.31;;;19.28
65738;BMP280;52478;51.844;6.582;2024-02-26T03:54:48;99738.16;;;19.28
65738;BMP280;52478;51.844;6.582;2024-02-26T03:57:14;99734.66;;;19.28
65738;BMP280;52478;51.844;6.582;2024-02-26T03:59:41;99746.47;;;19.28
65738;BMP280;52478;51.844;6.582;2024-02-26T04:02:07;99731.75;;;19.20
65738;BMP280;52478;51.844;6.582;2024-02-26T04:04:36;99742.97;;;19.28
65738;BMP280;52478;51.844;6.582;2024-02-26T04:07:03;99747.75;;;19.27
65738;BMP280;52478;51.844;6.582;2024-02-26T04:09:31;99742.22;;;19.27
65738;BMP280;52478;51.844;6.582;2024-02-26T04:11:57;99740.75;;;19.26
65738;BMP280;52478;51.844;6.582;2024-02-26T04:14:23;99736.66;;;19.27
65738;BMP280;52478;51.844;6.582;2024-02-26T04:16:50;99746.47;;;19.28
65738;BMP280;52478;51.844;6.582;2024-02-26T04:19:19;99747.75;;;19.27
65738;BMP280;52478;51.844;6.582;2024-02-26T04:21:47;99753.31;;;19.27
65738;BMP280;52478;51.844;6.582;2024-02-26T04:24:13;99756.09;;;19.27
65738;BMP280;52478;51.844;6.582;2024-02-26T04:26:40;99755.31;;;19.27
65738;BMP280;52478;51.844;6.582;2024-02-26T04:29:06;99752.53;;;19.27
65738;BMP280;52478;51.844;6.582;2024-02-26T04:31:32;99746.28;;;19.26
65738;BMP280;52478;51.844;6.582;2024-02-26T04:33:59;99744.78;;;19.25
65738;BMP280;52478;51.844;6.582;2024-02-26T04:36:25;99756.63;;;19.26
65738;BMP280;52478;51.844;6.582;2024-02-26T04:38:53;99759.41;;;19.26
65738;BMP280;52478;51.844;6.582;2024-02-26T04:41:21;99751.09;;;19.26
65738;BMP280;52478;51.844;6.582;2024-02-26T04:43:47;99747.53;;;19.25
65738;BMP280;52478;51.844;6.582;2024-02-26T04:46:13;99757.38;;;19.26
65738;BMP280;52478;51.844;6.582;2024-02-26T04:48:40;99757.38;;;19.26
65738;BMP280;52478;51.844;6.582;2024-02-26T04:51:07;99757.16;;;19.24
65738;BMP280;52478;51.844;6.582;2024-02-26T04:53:33;99755.88;;;19.25
65738;BMP280;52478;51.844;6.582;2024-02-26T04:56:01;99755.88;;;19.25
65738;BMP280;52478;51.844;6.582;2024-02-26T04:58:28;99771.03;;;19.24
65738;BMP280;52478;51.844;6.582;2024-02-26T05:00:54;99763.47;;;19.25
65738;BMP280;52478;51.844;6.582;2024-02-26T05:03:21;99768.25;;;19.24
65738;BMP280;52478;51.844;6.582;2024-02-26T05:05:48;99765.47;;;19.24
65738;BMP280;52478;51.844;6.582;2024-02-26T05:08:14;99765.47;;;19.24
65738;BMP280;52478;51.844;6.582;2024-02-26T05:10:40;99769.53;;;19.23
65738;BMP280;52478;51.844;6.582;2024-02-26T05:13:09;99766.75;;;19.23
65738;BMP280;52478;51.844;6.582;2024-02-26T05:15:36;99763.97;;;19.23
65738;BMP280;52478;51.844;6.582;2024-02-26T05:18:03;99762.47;;;19.22
65738;BMP280;52478;51.844;6.582;2024-02-26T05:20:29;99759.72;;;19.22
65738;BMP280;52478;51.844;6.582;2024-02-26T05:22:56;99768.03;;;19.22
65738;BMP280;52478;51.844;6.582;2024-02-26T05:25:24;99766.56;;;19.21
65738;BMP280;52478;51.844;6.582;2024-02-26T05:27:50;99761.75;;;19.22
65738;BMP280;52478;51.844;6.582;2024-02-26T05:30:18;99769.34;;;19.21
65738;BMP280;52478;51.844;6.582;2024-02-26T05:32:44;99772.13;;;19.21
65738;BMP280;52478;51.844;6.582;2024-02-26T05:35:11;99774.13;;;19.21
65738;BMP280;52478;51.844;6.582;2024-02-26T05:37:37;99771.34;;;19.21
65738;BMP280;52478;51.844;6.582;2024-02-26T05:40:05;99766.56;;;19.21
65738;BMP280;52478;51.844;6.582;2024-02-26T05:42:32;99777.66;;;19.21
65738;BMP280;52478;51.844;6.582;2024-02-26T05:44:58;99783.22;;;19.21
65738;BMP280;52478;51.844;6.582;2024-02-26T05:47:32;99777.66;;;19.21
65738;BMP280;52478;51.844;6.582;2024-02-26T05:49:58;99778.91;;;19.20
65738;BMP280;52478;51.844;6.582;2024-02-26T05:52:26;99790.00;;;19.20
65738;BMP280;52478;51.844;6.582;2024-02-26T05:54:52;99785.22;;;19.21
65738;BMP280;52478;51.844;6.582;2024-02-26T05:57:18;99794.31;;;19.21
65738;BMP280;52478;51.844;6.582;2024-02-26T05:59:45;99788.75;;;19.21
65738;BMP280;52478;51.844;6.582;2024-02-26T06:02:11;99787.44;;;19.22
65738;BMP280;52478;51.844;6.582;2024-02-26T06:04:39;99796.50;;;19.23
65738;BMP280;52478;51.844;6.582;2024-02-26T06:07:05;99804.31;;;19.24
65738;BMP280;52478;51.844;6.582;2024-02-26T06:09:32;99809.34;;;19.26
65738;BMP280;52478;51.844;6.582;2024-02-26T06:11:58;99804.00;;;19.28
65738;BMP280;52478;51.844;6.582;2024-02-26T06:14:25;99807.75;;;19.30
65738;BMP280;52478;51.844;6.582;2024-02-26T06:16:51;99814.25;;;19.33
65738;BMP280;52478;51.844;6.582;2024-02-26T06:19:18;99811.47;;;19.33
65738;BMP280;52478;51.844;6.582;2024-02-26T06:21:45;99813.72;;;19.34
65738;BMP280;52478;51.844;6.582;2024-02-26T06:24:12;99818.97;;;19.38
65738;BMP280;52478;51.844;6.582;2024-02-26T06:26:39;99822.69;;;19.40
65738;BMP280;52478;51.844;6.582;2024-02-26T06:29:05;99821.63;;;19.43
65738;BMP280;52478;51.844;6.582;2024-02-26T06:31:32;99826.09;;;19.46
65738;BMP280;52478;51.844;6.582;2024-02-26T06:33:58;99825.03;;;19.49
65738;BMP280;52478;51.844;6.582;2024-02-26T06:36:24;99828.03;;;19.51
65738;BMP280;52478;51.844;6.582;2024-02-26T06:38:52;99831.75;;;19.54
65738;BMP280;52478;51.844;6.582;2024-02-26T06:41:19;99829.72;;;19.54
65738;BMP280;52478;51.844;6.582;2024-02-26T06:43:46;99826.63;;;19.58
65738;BMP280;52478;51.844;6.582;2024-02-26T06:46:13;99832.59;;;19.62
65738;BMP280;52478;51.844;6.582;2024-02-26T06:48:39;99833.56;;;19.64
65738;BMP280;52478;51.844;6.582;2024-02-26T06:51:06;99837.31;;;19.67
65738;BMP280;52478;51.844;6.582;2024-02-26T06:53:32;99838.28;;;19.69
65738;BMP280;52478;51.844;6.582;2024-02-26T06:56:00;99841.25;;;19.71
65738;BMP280;52478;51.844;6.582;2024-02-26T06:58:26;99842.22;;;19.74
65738;BMP280;52478;51.844;6.582;2024-02-26T07:00:53;99842.44;;;19.76
65738;BMP280;52478;51.844;6.582;2024-02-26T07:03:19;99844.69;;;19.77
65738;BMP280;52478;51.844;6.582;2024-02-26T07:05:47;99853.19;;;19.79
65738;BMP280;52478;51.844;6.582;2024-02-26T07:08:14;99843.59;;;19.80
65738;BMP280;52478;51.844;6.582;2024-02-26T07:10:40;99841.03;;;19.82
65738;BMP280;52478;51.844;6.582;2024-02-26T07:13:08;99852.13;;;19.82
65738;BMP280;52478;51.844;6.582;2024-02-26T07:15:34;99852.53;;;19.86
65738;BMP280;52478;51.844;6.582;2024-02-26T07:18:01;99860.34;;;19.88
65738;BMP280;52478;51.844;6.582;2024-02-26T07:20:28;99863.88;;;19.88
65738;BMP280;52478;51.844;6.582;2024-02-26T07:22:55;99869.66;;;19.90
65738;BMP280;52478;51.844;6.582;2024-02-26T07:25:21;99864.28;;;19.92
65738;BMP280;52478;51.844;6.582;2024-02-26T07:27:49;99869.34;;;19.94
65738;BMP280;52478;51.844;6.582;2024-02-26T07:30:17;99872.09;;;19.94
65738;BMP280;52478;51.844;6.582;2024-02-26T07:32:43;99879.88;;;19.95
65738;BMP280;52478;51.844;6.582;2024-02-26T07:35:10;99879.88;;;19.95
65738;BMP280;52478;51.844;6.582;2024-02-26T07:37:37;99877.53;;;19.99
65738;BMP280;52478;51.844;6.582;2024-02-26T07:40:05;99876.78;;;19.99
65738;BMP280;52478;51.844;6.582;2024-02-26T07:42:33;99885.31;;;20.01
65738;BMP280;52478;51.844;6.582;2024-02-26T07:44:59;99877.75;;;20.01
65738;BMP280;52478;51.844;6.582;2024-02-26T07:47:27;99880.75;;;20.03
65738;BMP280;52478;51.844;6.582;2024-02-26T07:49:55;99883.72;;;20.05
65738;BMP280;52478;51.844;6.582;2024-02-26T07:52:21;99879.66;;;20.06
65738;BMP280;52478;51.844;6.582;2024-02-26T07:54:48;99884.34;;;20.11
65738;BMP280;52478;51.844;6.582;2024-02-26T07:57:14;99897.38;;;20.16
65738;BMP280;52478;51.844;6.582;2024-02-26T07:59:42;99900.13;;;20.16
65738;BMP280;52478;51.844;6.582;2024-02-26T08:02:10;99899.28;;;20.21
65738;BMP280;52478;51.844;6.582;2024-02-26T08:04:37;99914.69;;;20.22
65738;BMP280;52478;51.844;6.582;2024-02-26T08:07:04;99929.31;;;20.22
65738;BMP280;52478;51.844;6.582;2024-02-26T08:09:30;99941.22;;;20.23
65738;BMP280;52478;51.844;6.582;2024-02-26T08:11:57;99934.34;;;20.24
65738;BMP280;52478;51.844;6.582;2024-02-26T08:14:23;99942.66;;;20.24
65738;BMP280;52478;51.844;6.582;2024-02-26T08:16:50;99948.47;;;20.26
65738;BMP280;52478;51.844;6.582;2024-02-26T08:19:16;99942.66;;;20.24
65738;BMP280;52478;51.844;6.582;2024-02-26T08:21:44;99946.75;;;20.23
65738;BMP280;52478;51.844;6.582;2024-02-26T08:24:10;99948.22;;;20.24
65738;BMP280;52478;51.844;6.582;2024-02-26T08:26:37;99953.59;;;20.22
65738;BMP280;52478;51.844;6.582;2024-02-26T08:29:03;99954.84;;;20.21
65738;BMP280;52478;51.844;6.582;2024-02-26T08:31:30;99958.72;;;20.18
65738;BMP280;52478;51.844;6.582;2024-02-26T08:33:56;99948.47;;;20.13
65738;BMP280;52478;51.844;6.582;2024-02-26T08:36:24;99958.50;;;20.16
65738;BMP280;52478;51.844;6.582;2024-02-26T08:38:52;99962.56;;;20.15
65738;BMP280;52478;51.844;6.582;2024-02-26T08:41:18;99962.56;;;20.15
65738;BMP280;52478;51.844;6.582;2024-02-26T08:43:45;99963.31;;;20.15
65738;BMP280;52478;51.844;6.582;2024-02-26T08:46:12;99959.59;;;20.13
65738;BMP280;52478;51.844;6.582;2024-02-26T08:48:39;99965.16;;;20.13
65738;BMP280;52478;51.844;6.582;2024-02-26T08:51:06;99958.81;;;20.12
65738;BMP280;52478;51.844;6.582;2024-02-26T08:53:32;99956.56;;;20.11
65738;BMP280;52478;51.844;6.582;2024-02-26T08:56:00;99957.34;;;20.11
65738;BMP280;52478;51.844;6.582;2024-02-26T08:58:27;99966.22;;;20.10
65738;BMP280;52478;51.844;6.582;2024-02-26T09:00:53;99964.72;;;20.09
65738;BMP280;52478;51.844;6.582;2024-02-26T09:03:20;99970.28;;;20.09
65738;BMP280;52478;51.844;6.582;2024-02-26T09:05:46;99971.56;;;20.08
65738;BMP280;52478;51.844;6.582;2024-02-26T09:08:11;99968.78;;;20.08
65738;BMP280;52478;51.844;6.582;2024-02-26T09:10:38;99973.56;;;20.08
65738;BMP280;52478;51.844;6.582;2024-02-26T09:13:06;99970.59;;;20.06
65738;BMP280;52478;51.844;6.582;2024-02-26T09:15:32;99980.19;;;20.05
65738;BMP280;52478;51.844;6.582;2024-02-26T09:17:59;99985.00;;;20.04
65738;BMP280;52478;51.844;6.582;2024-02-26T09:20:25;99973.91;;;20.04
65738;BMP280;52478;51.844;6.582;2024-02-26T09:22:52;99984.81;;;20.02
65738;BMP280;52478;51.844;6.582;2024-02-26T09:25:19;99980.53;;;20.01
65738;BMP280;52478;51.844;6.582;2024-02-26T09:27:46;99980.53;;;20.01
65738;BMP280;52478;51.844;6.582;2024-02-26T09:30:14;99984.59;;;20.00
65738;BMP280;52478;51.844;6.582;2024-02-26T09:32:41;99994.19;;;19.99
65738;BMP280;52478;51.844;6.582;2024-02-26T09:35:12;99999.75;;;19.99
65738;BMP280;52478;51.844;6.582;2024-02-26T09:37:38;100002.31;;;19.97
65738;BMP280;52478;51.844;6.582;2024-02-26T09:40:05;100013.41;;;19.97
65738;BMP280;52478;51.844;6.582;2024-02-26T09:42:32;100007.88;;;19.97
65738;BMP280;52478;51.844;6.582;2024-02-26T09:45:02;100001.56;;;19.97
65738;BMP280;52478;51.844;6.582;2024-02-26T09:47:36;100000.06;;;19.96
65738;BMP280;52478;51.844;6.582;2024-02-26T09:50:03;100010.44;;;19.95
65738;BMP280;52478;51.844;6.582;2024-02-26T09:52:33;100013.00;;;19.93
65738;BMP280;52478;51.844;6.582;2024-02-26T09:55:00;100011.50;;;19.92
65738;BMP280;52478;51.844;6.582;2024-02-26T09:57:28;100025.38;;;19.92
65738;BMP280;52478;51.844;6.582;2024-02-26T09:59:59;100032.22;;;19.91
65738;BMP280;52478;51.844;6.582;2024-02-26T10:02:27;100028.16;;;19.92
65738;BMP280;52478;51.844;6.582;2024-02-26T10:04:57;100034.47;;;19.93
65738;BMP280;52478;51.844;6.582;2024-02-26T10:07:27;100038.00;;;19.93
65738;BMP280;52478;51.844;6.582;2024-02-26T10:09:55;100039.28;;;19.92
65738;BMP280;52478;51.844;6.582;2024-02-26T10:12:22;100029.22;;;19.89
65738;BMP280;52478;51.844;6.582;2024-02-26T10:14:51;100041.38;;;19.86
65738;BMP280;52478;51.844;6.582;2024-02-26T10:17:18;100042.56;;;19.91
65738;BMP280;52478;51.844;6.582;2024-02-26T10:19:45;100043.31;;;19.91
65738;BMP280;52478;51.844;6.582;2024-02-26T10:22:13;100048.13;;;19.91
65738;BMP280;52478;51.844;6.582;2024-02-26T10:24:39;100049.41;;;19.90
65738;BMP280;52478;51.844;6.582;2024-02-26T10:27:06;100056.44;;;19.91
65738;BMP280;52478;51.844;6.582;2024-02-26T10:29:32;100062.75;;;19.91
65738;BMP280;52478;51.844;6.582;2024-02-26T10:31:59;100065.53;;;19.91
65738;BMP280;52478;51.844;6.582;2024-02-26T10:34:26;100058.06;;;19.86
65738;BMP280;52478;51.844;6.582;2024-02-26T10:36:53;100065.53;;;19.91
65738;BMP280;52478;51.844;6.582;2024-02-26T10:39:21;100068.31;;;19.91
65738;BMP280;52478;51.844;6.582;2024-02-26T10:41:47;100066.31;;;19.92
65738;BMP280;52478;51.844;6.582;2024-02-26T10:44:14;100076.66;;;19.91
65738;BMP280;52478;51.844;6.582;2024-02-26T10:46:40;100076.66;;;19.91
65738;BMP280;52478;51.844;6.582;2024-02-26T10:49:13;100085.53;;;19.90
65738;BMP280;52478;51.844;6.582;2024-02-26T10:51:44;100092.56;;;19.91
65738;BMP280;52478;51.844;6.582;2024-02-26T10:54:12;100100.88;;;19.91
65738;BMP280;52478;51.844;6.582;2024-02-26T10:56:42;100102.19;;;19.90
65738;BMP280;52478;51.844;6.582;2024-02-26T10:59:09;100108.50;;;19.90
65738;BMP280;52478;51.844;6.582;2024-02-26T11:01:36;100118.84;;;19.90
65738;BMP280;52478;51.844;6.582;2024-02-26T11:04:04;100122.41;;;19.90
65738;BMP280;52478;51.844;6.582;2024-02-26T11:06:31;100118.09;;;19.89
65738;BMP280;52478;51.844;6.582;2024-02-26T11:09:00;100126.44;;;19.89
65738;BMP280;52478;51.844;6.582;2024-02-26T11:11:27;100134.03;;;19.89
65738;BMP280;52478;51.844;6.582;2024-02-26T11:13:57;100130.72;;;19.90
65738;BMP280;52478;51.844;6.582;2024-02-26T11:16:25;100128.97;;;19.87
65738;BMP280;52478;51.844;6.582;2024-02-26T11:18:53;100136.28;;;19.90
65738;BMP280;52478;51.844;6.582;2024-02-26T11:21:21;100135.53;;;19.90
65738;BMP280;52478;51.844;6.582;2024-02-26T11:23:52;100136.28;;;19.90
65738;BMP280;52478;51.844;6.582;2024-02-26T11:26:20;100133.25;;;19.88
65738;BMP280;52478;51.844;6.582;2024-02-26T11:28:48;100137.53;;;19.89
65738;BMP280;52478;51.844;6.582;2024-02-26T11:31:16;100150.19;;;19.90
65738;BMP280;52478;51.844;6.582;2024-02-26T11:33:51;100155.72;;;19.90
65738;BMP280;52478;51.844;6.582;2024-02-26T11:36:19;100154.97;;;19.90
65738;BMP280;52478;51.844;6.582;2024-02-26T11:38:46;100156.97;;;19.89
65738;BMP280;52478;51.844;6.582;2024-02-26T11:41:17;100151.19;;;19.87
65738;BMP280;52478;51.844;6.582;2024-02-26T11:43:50;100159.75;;;19.89
65738;BMP280;52478;51.844;6.582;2024-02-26T11:46:30;100156.97;;;19.89
65738;BMP280;52478;51.844;6.582;2024-02-26T11:48:58;100156.25;;;19.89
65738;BMP280;52478;51.844;6.582;2024-02-26T11:51:26;100153.47;;;19.89
65738;BMP280;52478;51.844;6.582;2024-02-26T11:53:53;100148.66;;;19.89
65738;BMP280;52478;51.844;6.582;2024-02-26T11:56:23;100152.19;;;19.90
65738;BMP280;52478;51.844;6.582;2024-02-26T11:59:01;100157.75;;;19.90
65738;BMP280;52478;51.844;6.582;2024-02-26T12:01:52;100156.97;;;19.89
65738;BMP280;52478;51.844;6.582;2024-02-26T12:04:21;100161.78;;;19.89
65738;BMP280;52478;51.844;6.582;2024-02-26T12:06:50;100162.53;;;19.89
65738;BMP280;52478;51.844;6.582;2024-02-26T12:09:31;100156.56;;;19.85
65738;BMP280;52478;51.844;6.582;2024-02-26T12:11:57;100168.09;;;19.89
65738;BMP280;52478;51.844;6.582;2024-02-26T12:14:25;100163.28;;;19.90
65738;BMP280;52478;51.844;6.582;2024-02-26T12:16:55;100168.09;;;19.89
65738;BMP280;52478;51.844;6.582;2024-02-26T12:19:22;100168.84;;;19.90
65738;BMP280;52478;51.844;6.582;2024-02-26T12:21:51;100168.09;;;19.89
65738;BMP280;52478;51.844;6.582;2024-02-26T12:24:18;100186.28;;;19.90
65738;BMP280;52478;51.844;6.582;2024-02-26T12:26:45;100187.53;;;19.89
65738;BMP280;52478;51.844;6.582;2024-02-26T12:29:12;100196.63;;;19.90
65738;BMP280;52478;51.844;6.582;2024-02-26T12:31:40;100179.81;;;19.82
65738;BMP280;52478;51.844;6.582;2024-02-26T12:34:08;100183.50;;;19.90
65738;BMP280;52478;51.844;6.582;2024-02-26T12:36:36;100190.31;;;19.89
65738;BMP280;52478;51.844;6.582;2024-02-26T12:39:03;100191.84;;;19.90
65738;BMP280;52478;51.844;6.582;2024-02-26T12:41:31;100196.63;;;19.90
65738;BMP280;52478;51.844;6.582;2024-02-26T12:43:58;100198.63;;;19.89
65738;BMP280;52478;51.844;6.582;2024-02-26T12:46:24;100198.09;;;19.91
65738;BMP280;52478;51.844;6.582;2024-02-26T12:48:51;100203.66;;;19.91
65738;BMP280;52478;51.844;6.582;2024-02-26T12:51:21;100203.66;;;19.91
65738;BMP280;52478;51.844;6.582;2024-02-26T12:53:48;100208.50;;;19.90
65738;BMP280;52478;51.844;6.582;2024-02-26T12:56:17;100208.50;;;19.90
65738;BMP280;52478;51.844;6.582;2024-02-26T12:58:45;100219.59;;;19.90
65738;BMP280;52478;51.844;6.582;2024-02-26T13:01:14;100219.59;;;19.90
65738;BMP280;52478;51.844;6.582;2024-02-26T13:03:41;100218.09;;;19.89
65738;BMP280;52478;51.844;6.582;2024-02-26T13:06:08;100225.16;;;19.90
65738;BMP280;52478;51.844;6.582;2024-02-26T13:08:37;100223.63;;;19.89
65738;BMP280;52478;51.844;6.582;2024-02-26T13:11:04;100230.72;;;19.90
65738;BMP280;52478;51.844;6.582;2024-02-26T13:13:30;100229.97;;;19.90
65738;BMP280;52478;51.844;6.582;2024-02-26T13:16:04;100235.50;;;19.90
65738;BMP280;52478;51.844;6.582;2024-02-26T13:18:33;100241.84;;;19.90
65738;BMP280;52478;51.844;6.582;2024-02-26T13:21:09;100246.63;;;19.90
65738;BMP280;52478;51.844;6.582;2024-02-26T13:23:37;100241.84;;;19.90
65738;BMP280;52478;51.844;6.582;2024-02-26T13:26:04;100255.72;;;19.90
65738;BMP280;52478;51.844;6.582;2024-02-26T13:28:31;100265.53;;;19.91
65738;BMP280;52478;51.844;6.582;2024-02-26T13:30:58;100265.53;;;19.91
65738;BMP280;52478;51.844;6.582;2024-02-26T13:33:27;100270.31;;;19.91
65738;BMP280;52478;51.844;6.582;2024-02-26T13:35:54;100267.53;;;19.91
65738;BMP280;52478;51.844;6.582;2024-02-26T13:38:21;100273.84;;;19.91
65738;BMP280;52478;51.844;6.582;2024-02-26T13:40:49;100266.81;;;19.90
65738;BMP280;52478;51.844;6.582;2024-02-26T13:43:16;100268.31;;;19.91
65738;BMP280;52478;51.844;6.582;2024-02-26T13:45:42;100275.88;;;19.91
65738;BMP280;52478;51.844;6.582;2024-02-26T13:48:10;100279.94;;;19.90
65738;BMP280;52478;51.844;6.582;2024-02-26T13:50:36;100280.72;;;19.90
65738;BMP280;52478;51.844;6.582;2024-02-26T13:53:03;100288.28;;;19.90
65738;BMP280;52478;51.844;6.582;2024-02-26T13:55:30;100291.81;;;19.90
65738;BMP280;52478;51.844;6.582;2024-02-26T13:57:58;100290.28;;;19.89
65738;BMP280;52478;51.844;6.582;2024-02-26T14:00:26;100293.06;;;19.89
65738;BMP280;52478;51.844;6.582;2024-02-26T14:02:53;100299.91;;;19.88
65738;BMP280;52478;51.844;6.582;2024-02-26T14:05:19;100301.41;;;19.89